sensor_id;sensor_type;location;lat;lon;timestamp;pressure;altitude;pressure_sealevel;temperature;humidity
59194;BME280;44967;48.598;15.650;2022-10-16T08:36:53;98662.28;;;18.75;60.10
59194;BME280;44967;48.598;15.650;2022-10-16T08:39:18;98664.56;;;18.91;59.98
59194;BME280;44967;48.598;15.650;2022-10-16T08:47:23;98686.56;;;19.16;59.34
59194;BME280;44967;48.598;15.650;2022-10-16T08:49:59;98682.22;;;19.15;58.58
59194;BME280;44967;48.598;15.650;2022-10-16T08:52:30;98686.19;;;19.18;58.73
59194;BME280;44967;48.598;15.650;2022-10-16T08:54:56;98685.41;;;19.10;59.03
59194;BME280;44967;48.598;15.650;2022-10-16T08:57:23;98688.59;;;19.12;59.58
59194;BME280;44967;48.598;15.650;2022-10-16T08:59:52;98691.69;;;19.22;59.10
59194;BME280;44967;48.598;15.650;2022-10-16T09:02:31;98690.91;;;19.17;58.90
59194;BME280;44967;48.598;15.650;2022-10-16T09:07:59;98686.25;;;19.03;59.33
59194;BME280;44967;48.598;15.650;2022-10-16T09:10:59;98692.91;;;19.17;58.97
59194;BME280;44967;48.598;15.650;2022-10-16T09:13:40;98696.94;;;19.05;58.19
59194;BME280;44967;48.598;15.650;2022-10-16T09:16:24;98683.53;;;18.89;58.93
59194;BME280;44967;48.598;15.650;2022-10-16T09:21:40;98679.50;;;19.08;59.60
59194;BME280;44967;48.598;15.650;2022-10-16T09:24:17;98684.50;;;19.31;58.63
59194;BME280;44967;48.598;15.650;2022-10-16T09:26:44;98688.84;;;19.32;58.83
59194;BME280;44967;48.598;15.650;2022-10-16T09:29:17;98685.59;;;19.41;57.83
59194;BME280;44967;48.598;15.650;2022-10-16T09:31:47;98681.19;;;19.48;58.83
59194;BME280;44967;48.598;15.650;2022-10-16T09:34:40;98688.56;;;19.65;57.99
59194;BME280;44967;48.598;15.650;2022-10-16T09:37:17;98683.41;;;19.71;57.67
59194;BME280;44967;48.598;15.650;2022-10-16T09:39:48;98688.91;;;19.75;58.33
59194;BME280;44967;48.598;15.650;2022-10-16T09:42:23;98680.78;;;19.53;58.23
59194;BME280;44967;48.598;15.650;2022-10-16T09:44:52;98678.38;;;19.55;58.58
59194;BME280;44967;48.598;15.650;2022-10-16T09:47:23;98686.91;;;19.75;58.43
59194;BME280;44967;48.598;15.650;2022-10-16T09:49:55;98693.97;;;19.80;58.12
59194;BME280;44967;48.598;15.650;2022-10-16T09:52:22;98705.88;;;19.80;57.99
59194;BME280;44967;48.598;15.650;2022-10-16T09:54:59;98709.38;;;19.84;57.36
59194;BME280;44967;48.598;15.650;2022-10-16T09:57:26;98713.28;;;19.94;57.98
59194;BME280;44967;48.598;15.650;2022-10-16T09:59:53;98711.97;;;20.06;57.39
59194;BME280;44967;48.598;15.650;2022-10-16T10:02:30;98700.44;;;20.11;56.91
59194;BME280;44967;48.598;15.650;2022-10-16T10:04:57;98703.88;;;20.23;57.35
59194;BME280;44967;48.598;15.650;2022-10-16T10:07:39;98716.25;;;20.14;56.54
59194;BME280;44967;48.598;15.650;2022-10-16T10:10:32;98719.81;;;20.15;56.80
59194;BME280;44967;48.598;15.650;2022-10-16T10:12:58;98715.53;;;20.10;56.82
59194;BME280;44967;48.598;15.650;2022-10-16T10:15:25;98715.56;;;20.07;56.31
59194;BME280;44967;48.598;15.650;2022-10-16T10:17:57;98708.53;;;20.33;57.03
59194;BME280;44967;48.598;15.650;2022-10-16T10:20:34;98713.50;;;20.49;56.37
59194;BME280;44967;48.598;15.650;2022-10-16T10:23:01;98718.16;;;20.60;56.95
59194;BME280;44967;48.598;15.650;2022-10-16T10:25:44;98717.59;;;20.72;56.52
59194;BME280;44967;48.598;15.650;2022-10-16T10:31:17;98707.84;;;20.91;55.79
59194;BME280;44967;48.598;15.650;2022-10-16T10:36:36;98708.19;;;21.24;55.47
59194;BME280;44967;48.598;15.650;2022-10-16T10:39:27;98698.13;;;21.34;55.14
59194;BME280;44967;48.598;15.650;2022-10-16T10:42:06;98703.88;;;21.20;55.47
59194;BME280;44967;48.598;15.650;2022-10-16T10:47:33;98704.22;;;21.26;54.58
59194;BME280;44967;48.598;15.650;2022-10-16T10:53:10;98703.31;;;21.32;54.47
59194;BME280;44967;48.598;15.650;2022-10-16T10:55:54;98707.31;;;21.55;54.48
59194;BME280;44967;48.598;15.650;2022-10-16T10:58:50;98706.53;;;21.55;55.79
59194;BME280;44967;48.598;15.650;2022-10-16T11:01:30;98698.06;;;21.62;55.01
59194;BME280;44967;48.598;15.650;2022-10-16T11:04:28;98710.69;;;21.67;54.69
59194;BME280;44967;48.598;15.650;2022-10-16T11:07:02;98709.25;;;21.58;53.40
59194;BME280;44967;48.598;15.650;2022-10-16T11:09:36;98706.16;;;21.53;55.48
59194;BME280;44967;48.598;15.650;2022-10-16T14:40:23;98726.66;;;23.65;49.56
59194;BME280;44967;48.598;15.650;2022-10-16T14:42:50;98720.63;;;23.66;49.75
59194;BME280;44967;48.598;15.650;2022-10-16T14:45:20;98716.19;;;23.69;49.23
59194;BME280;44967;48.598;15.650;2022-10-16T14:47:56;98722.19;;;23.67;49.81
59194;BME280;44967;48.598;15.650;2022-10-16T14:50:22;98721.94;;;23.62;48.81
59194;BME280;44967;48.598;15.650;2022-10-16T14:52:48;98719.06;;;23.65;49.81
59194;BME280;44967;48.598;15.650;2022-10-16T14:55:15;98714.88;;;23.57;49.93
59194;BME280;44967;48.598;15.650;2022-10-16T14:57:41;98731.25;;;23.55;50.14
59194;BME280;44967;48.598;15.650;2022-10-16T15:00:16;98736.50;;;23.53;49.63
59194;BME280;44967;48.598;15.650;2022-10-16T15:02:42;98737.78;;;23.48;50.21
59194;BME280;44967;48.598;15.650;2022-10-16T15:07:39;98741.84;;;23.27;51.43
59194;BME280;44967;48.598;15.650;2022-10-16T15:10:05;98741.88;;;23.07;51.99
59194;BME280;44967;48.598;15.650;2022-10-16T15:12:30;98741.97;;;23.03;52.22
59194;BME280;44967;48.598;15.650;2022-10-16T15:14:57;98738.78;;;22.84;52.65
59194;BME280;44967;48.598;15.650;2022-10-16T15:17:22;98738.72;;;22.68;52.69
59194;BME280;44967;48.598;15.650;2022-10-16T15:19:48;98738.31;;;22.45;53.56
59194;BME280;44967;48.598;15.650;2022-10-16T15:22:13;98746.09;;;22.34;53.73
